Terminal Aerodrome Forecast
Issued by NWS Wilmington, OH

Home | Current Version | Previous Version | Text Only | Print | Product List | Glossary On
Versions: 1 2 3 4 5 6 7 8 9 10 11 12 13 14 15 16 17 18
000
FTUS41 KILN 312300
TAFILN
TAF
KILN 312337Z 0100/0124 25004KT P6SM BKN110
     FM010100 VRB03KT P6SM SCT110
     FM010700 VRB03KT 4SM BR SKC
      TEMPO 0109/0112 2SM BR
     FM011400 07005KT P6SM SCT040
     FM011700 13004KT P6SM BKN040=

USA.gov is the U.S. government's official web portal to all federal, state and local government web resources and services.